createdAt,value
2019-05-28T00:02:10.769Z,97474.91
2019-05-28T00:04:41.175Z,97469.81
2019-05-28T00:07:11.541Z,97464.63
2019-05-28T00:09:41.903Z,97451.03
2019-05-28T00:12:12.275Z,97451.87
2019-05-28T00:14:42.632Z,97446.91
2019-05-28T00:17:13.064Z,97450.16
2019-05-28T00:19:43.445Z,97444.34
2019-05-28T00:22:13.903Z,97432.81
2019-05-28T00:24:44.271Z,97434.02
2019-05-28T00:27:14.599Z,97433.55
2019-05-28T00:29:44.969Z,97432.81
2019-05-28T00:32:15.343Z,97422.36
2019-05-28T00:34:45.703Z,97426.97
2019-05-28T00:37:16.073Z,97429.03
2019-05-28T00:39:46.467Z,97424.32
2019-05-28T00:42:16.821Z,97418.61
2019-05-28T00:44:47.257Z,97427.70
2019-05-28T00:47:17.715Z,97422.86
2019-05-28T00:49:49.769Z,97413.64
2019-05-28T00:52:20.277Z,97410.83
2019-05-28T00:54:50.735Z,97410.61
2019-05-28T00:57:21.670Z,97401.51
2019-05-28T00:59:52.276Z,97399.34
2019-05-28T01:02:22.637Z,97395.69
2019-05-28T01:04:53.111Z,97390.09
2019-05-28T01:07:23.447Z,97394.97
2019-05-28T01:09:53.855Z,97391.19
2019-05-28T01:12:24.312Z,97392.60
2019-05-28T01:14:54.655Z,97385.95
2019-05-28T01:17:24.995Z,97386.17
2019-05-28T01:19:55.363Z,97385.41
2019-05-28T01:22:25.836Z,97375.22
2019-05-28T01:24:56.181Z,97376.78
2019-05-28T01:27:26.553Z,97375.67
2019-05-28T01:29:56.913Z,97375.55
2019-05-28T01:32:27.295Z,97373.72
2019-05-28T01:34:57.707Z,97366.94
2019-05-28T01:37:28.886Z,97362.32
2019-05-28T01:39:59.637Z,97357.70
2019-05-28T01:42:31.625Z,97365.20
2019-05-28T01:45:02.036Z,97360.37
2019-05-28T01:47:32.433Z,97355.25
2019-05-28T01:50:02.860Z,97352.34
2019-05-28T01:52:33.223Z,97348.69
2019-05-28T01:55:05.181Z,97347.85
2019-05-28T01:57:35.533Z,97346.39
2019-05-28T02:00:07.071Z,97346.30
2019-05-28T02:02:37.433Z,97350.30
2019-05-28T02:05:09.387Z,97343.27
2019-05-28T02:07:39.755Z,97346.02
2019-05-28T02:10:12.046Z,97343.48
2019-05-28T02:12:42.521Z,97348.34
2019-05-28T02:15:14.655Z,97342.17
2019-05-28T02:17:45.034Z,97342.77
2019-05-28T02:20:15.557Z,97341.19
2019-05-28T02:22:45.985Z,97341.69
2019-05-28T02:25:16.759Z,97338.62
2019-05-28T02:27:47.171Z,97343.41
2019-05-28T02:30:18.251Z,97341.13
2019-05-28T02:32:48.609Z,97342.95
2019-05-28T02:35:20.371Z,97339.54
2019-05-28T02:37:50.747Z,97342.45
2019-05-28T02:40:21.395Z,97341.74
2019-05-28T02:42:51.755Z,97333.72
2019-05-28T02:45:22.301Z,97337.46
2019-05-28T02:47:52.696Z,97337.71
2019-05-28T02:50:44.578Z,97340.00
2019-05-28T02:53:14.949Z,97344.70
2019-05-28T02:55:46.769Z,97343.99
2019-05-28T02:58:18.827Z,97339.00
2019-05-28T03:00:50.909Z,97341.54
2019-05-28T03:03:22.770Z,97343.38
2019-05-28T03:05:53.472Z,97351.98
2019-05-28T03:08:25.044Z,97343.00
2019-05-28T03:11:02.997Z,97343.88
2019-05-28T03:13:28.341Z,97341.45
2019-05-28T03:16:01.748Z,97347.16
2019-05-28T03:18:34.330Z,97344.62
2019-05-28T03:21:05.164Z,97332.75
2019-05-28T03:23:37.239Z,97343.41
2019-05-28T03:26:07.900Z,97338.95
2019-05-28T03:28:38.501Z,97340.66
2019-05-28T03:31:09.301Z,97337.28
2019-05-28T03:33:39.836Z,97339.48
2019-05-28T03:36:11.661Z,97333.16
2019-05-28T03:38:44.508Z,97334.31
2019-05-28T03:41:15.121Z,97334.55
2019-05-28T03:43:45.499Z,97323.77
2019-05-28T03:46:17.024Z,97319.17
2019-05-28T03:48:47.405Z,97321.00
2019-05-28T03:51:17.913Z,97326.00
2019-05-28T03:53:48.904Z,97334.23
2019-05-28T03:56:19.629Z,97321.42
2019-05-28T03:58:50.125Z,97315.83
2019-05-28T04:01:20.558Z,97316.69
2019-05-28T04:03:50.950Z,97313.70
2019-05-28T04:06:21.369Z,97312.09
2019-05-28T04:08:52.876Z,97311.19
2019-05-28T04:11:23.213Z,97311.64
2019-05-28T04:13:53.617Z,97320.08
2019-05-28T04:16:23.964Z,97319.98
2019-05-28T04:18:54.297Z,97319.56
2019-05-28T04:21:24.654Z,97317.84
2019-05-28T04:23:55.111Z,97322.73
2019-05-28T04:26:26.606Z,97306.98
2019-05-28T04:28:56.952Z,97315.41
2019-05-28T04:31:27.310Z,97311.77
2019-05-28T04:33:58.466Z,97316.28
2019-05-28T04:36:29.215Z,97313.58
2019-05-28T04:38:59.773Z,97305.05
2019-05-28T04:41:30.150Z,97301.94
2019-05-28T04:44:00.503Z,97301.92
2019-05-28T04:46:30.863Z,97298.67
2019-05-28T04:49:01.229Z,97297.39
2019-05-28T04:51:31.591Z,97297.89
2019-05-28T04:54:01.966Z,97290.25
2019-05-28T04:56:32.323Z,97287.59
2019-05-28T04:59:03.944Z,97283.94
2019-05-28T05:01:34.590Z,97287.56
2019-05-28T05:04:05.190Z,97277.54
2019-05-28T05:06:35.675Z,97271.95
2019-05-28T05:09:07.855Z,97272.48
2019-05-28T05:11:38.708Z,97270.00
2019-05-28T05:14:09.469Z,97262.28
2019-05-28T05:16:39.886Z,97262.64
2019-05-28T05:19:10.350Z,97262.41
2019-05-28T05:21:40.734Z,97255.72
2019-05-28T05:24:11.223Z,97270.88
2019-05-28T05:26:41.579Z,97265.44
2019-05-28T05:29:11.989Z,97268.64
2019-05-28T05:31:42.391Z,97255.38
2019-05-28T05:34:12.846Z,97261.58
2019-05-28T05:36:43.201Z,97257.89
2019-05-28T05:39:13.586Z,97250.23
2019-05-28T05:41:43.919Z,97262.41
2019-05-28T05:44:14.366Z,97240.08
2019-05-28T05:46:44.818Z,97256.33
2019-05-28T05:49:16.160Z,97254.58
2019-05-28T05:51:46.549Z,97254.58
2019-05-28T05:54:16.904Z,97256.92
2019-05-28T05:56:47.238Z,97251.94
2019-05-28T05:59:17.735Z,97245.00
2019-05-28T06:01:48.131Z,97239.96
2019-05-28T06:04:18.539Z,97240.09
2019-05-28T06:06:48.880Z,97238.35
2019-05-28T06:09:19.247Z,97228.27
2019-05-28T06:11:49.750Z,97228.54
2019-05-28T06:14:20.113Z,97229.58
2019-05-28T06:16:50.469Z,97227.30
2019-05-28T06:19:20.831Z,97228.23
2019-05-28T06:21:51.211Z,97225.03
2019-05-28T06:24:21.561Z,97229.40
2019-05-28T06:26:52.039Z,97230.77
2019-05-28T06:29:22.427Z,97225.22
2019-05-28T06:31:52.872Z,97227.33
2019-05-28T06:34:23.244Z,97222.64
2019-05-28T06:36:53.622Z,97224.50
2019-05-28T06:39:23.969Z,97226.95
2019-05-28T06:41:54.340Z,97220.77
2019-05-28T06:44:24.697Z,97211.61
2019-05-28T06:46:55.058Z,97208.86
2019-05-28T06:49:25.536Z,97214.38
2019-05-28T06:51:55.851Z,97207.78
2019-05-28T06:54:26.212Z,97202.38
2019-05-28T06:56:56.587Z,97206.82
2019-05-28T06:59:26.919Z,97208.31
2019-05-28T07:01:57.348Z,97210.93
2019-05-28T07:04:32.760Z,97208.85
2019-05-28T07:06:59.815Z,97197.05
2019-05-28T07:09:30.209Z,97196.52
2019-05-28T07:12:00.520Z,97204.89
2019-05-28T07:14:31.142Z,97189.30
2019-05-28T07:17:01.595Z,97191.08
2019-05-28T07:19:32.020Z,97186.84
2019-05-28T07:22:03.907Z,97185.42
2019-05-28T07:24:34.368Z,97180.60
2019-05-28T07:27:04.795Z,97176.38
2019-05-28T07:29:35.188Z,97174.09
2019-05-28T07:32:05.578Z,97176.67
2019-05-28T07:34:35.918Z,97176.39
2019-05-28T07:37:06.259Z,97175.69
2019-05-28T07:39:36.603Z,97175.88
2019-05-28T07:42:06.936Z,97168.11
2019-05-28T07:44:37.327Z,97166.12
2019-05-28T07:47:11.121Z,97154.38
2019-05-28T07:49:39.769Z,97148.09
2019-05-28T07:52:10.346Z,97157.39
2019-05-28T07:54:40.743Z,97145.70
2019-05-28T07:57:11.098Z,97158.34
2019-05-28T07:59:43.266Z,97164.45
2019-05-28T08:02:13.700Z,97166.97
2019-05-28T08:04:47.221Z,97165.59
2019-05-28T08:07:16.447Z,97155.98
2019-05-28T08:09:46.819Z,97159.43
2019-05-28T08:12:17.296Z,97154.27
2019-05-28T08:14:47.687Z,97153.12
2019-05-28T08:17:19.634Z,97157.72
2019-05-28T08:19:49.965Z,97163.91
2019-05-28T08:22:20.365Z,97159.72
2019-05-28T08:24:54.899Z,97162.06
2019-05-28T08:27:24.108Z,97161.34
2019-05-28T08:29:54.627Z,97168.61
2019-05-28T08:32:24.959Z,97172.48
2019-05-28T08:35:05.001Z,97169.13
2019-05-28T08:37:27.403Z,97160.73
2019-05-28T08:39:57.821Z,97158.23
2019-05-28T08:42:28.207Z,97162.27
2019-05-28T08:44:59.024Z,97167.95
2019-05-28T08:47:29.744Z,97169.64
2019-05-28T08:50:00.113Z,97166.64
2019-05-28T08:52:30.522Z,97162.23
2019-05-28T08:55:00.912Z,97166.41
2019-05-28T08:57:31.340Z,97157.47
2019-05-28T09:00:01.990Z,97172.52
2019-05-28T09:02:32.528Z,97169.22
2019-05-28T09:05:02.964Z,97172.96
2019-05-28T09:07:33.478Z,97165.22
2019-05-28T09:10:04.250Z,97173.17
2019-05-28T09:12:34.789Z,97168.82
2019-05-28T09:15:05.587Z,97160.36
2019-05-28T09:17:37.387Z,97175.18
2019-05-28T09:20:08.261Z,97170.73
2019-05-28T09:22:38.696Z,97170.73
2019-05-28T09:25:09.568Z,97178.91
2019-05-28T09:27:39.940Z,97181.87
2019-05-28T09:30:10.910Z,97193.55
2019-05-28T09:32:41.562Z,97197.58
2019-05-28T09:35:11.966Z,97200.44
2019-05-28T09:37:42.360Z,97203.48
2019-05-28T09:40:13.084Z,97209.19
2019-05-28T09:42:43.542Z,97217.50
2019-05-28T09:45:22.651Z,97212.80
2019-05-28T09:47:46.166Z,97216.23
2019-05-28T09:50:30.082Z,97210.20
2019-05-28T09:52:55.034Z,97206.77
2019-05-28T09:55:21.512Z,97195.31
2019-05-28T09:57:51.864Z,97200.38
2019-05-28T10:00:22.712Z,97187.57
2019-05-28T10:02:53.203Z,97187.36
2019-05-28T10:05:23.947Z,97184.32
2019-05-28T10:07:54.319Z,97184.17
2019-05-28T10:10:24.744Z,97181.64
2019-05-28T10:12:55.181Z,97189.93
2019-05-28T10:15:26.559Z,97187.55
2019-05-28T10:17:56.898Z,97187.83
2019-05-28T10:20:30.744Z,97186.02
2019-05-28T10:23:01.096Z,97185.88
2019-05-28T10:25:31.489Z,97187.23
2019-05-28T10:28:02.099Z,97192.09
2019-05-28T10:30:32.516Z,97198.67
2019-05-28T10:33:02.978Z,97196.42
2019-05-28T10:35:33.752Z,97187.55
2019-05-28T10:38:04.123Z,97187.67
2019-05-28T10:40:34.592Z,97180.28
2019-05-28T10:43:04.952Z,97172.51
2019-05-28T10:45:35.384Z,97166.03
2019-05-28T10:48:05.799Z,97168.92
2019-05-28T10:50:36.152Z,97162.34
2019-05-28T10:53:06.577Z,97153.34
2019-05-28T10:55:38.137Z,97154.53
2019-05-28T10:58:10.352Z,97165.06
2019-05-28T11:00:40.751Z,97163.23
2019-05-28T11:03:11.103Z,97169.51
2019-05-28T11:05:41.536Z,97169.92
2019-05-28T11:08:13.894Z,97169.21
2019-05-28T11:10:44.258Z,97178.81
2019-05-28T11:13:14.663Z,97172.28
2019-05-28T11:15:45.053Z,97168.76
2019-05-28T11:18:15.448Z,97179.80
2019-05-28T11:20:46.015Z,97182.31
2019-05-28T11:23:18.219Z,97184.53
2019-05-28T11:25:48.849Z,97175.15
2019-05-28T11:28:19.635Z,97174.84
2019-05-28T11:30:50.012Z,97167.08
2019-05-28T11:33:20.421Z,97165.95
2019-05-28T11:35:50.861Z,97162.22
2019-05-28T11:38:21.214Z,97165.19
2019-05-28T11:40:51.584Z,97178.39
2019-05-28T11:43:23.094Z,97170.84
2019-05-28T11:45:53.601Z,97168.75
2019-05-28T11:48:24.048Z,97167.70
2019-05-28T11:50:54.396Z,97170.53
2019-05-28T11:53:24.783Z,97168.84
2019-05-28T11:55:55.109Z,97177.77
2019-05-28T11:58:25.553Z,97182.89
2019-05-28T12:00:56.009Z,97167.08
2019-05-28T12:03:26.384Z,97169.20
2019-05-28T12:05:56.818Z,97167.52
2019-05-28T12:08:27.223Z,97168.69
2019-05-28T12:10:57.639Z,97168.77
2019-05-28T12:13:28.430Z,97162.34
2019-05-28T12:15:59.182Z,97160.29
2019-05-28T12:18:29.685Z,97155.00
2019-05-28T12:21:00.108Z,97139.06
2019-05-28T12:23:30.562Z,97134.69
2019-05-28T12:26:00.923Z,97141.98
2019-05-28T12:28:37.553Z,97138.55
2019-05-28T12:31:03.482Z,97144.47
2019-05-28T12:33:33.849Z,97140.91
2019-05-28T12:36:04.476Z,97138.80
2019-05-28T12:38:34.973Z,97133.45
2019-05-28T12:41:05.337Z,97136.11
2019-05-28T12:43:36.359Z,97133.70
2019-05-28T12:46:06.760Z,97132.31
2019-05-28T12:48:37.185Z,97127.40
2019-05-28T12:51:07.550Z,97130.44
2019-05-28T12:53:50.323Z,97125.28
2019-05-28T12:56:11.448Z,97130.66
2019-05-28T12:58:43.484Z,97107.01
2019-05-28T13:01:14.379Z,97101.47
2019-05-28T13:03:45.739Z,97096.44
2019-05-28T13:06:16.950Z,97102.70
2019-05-28T13:08:47.435Z,97106.72
2019-05-28T13:11:17.813Z,97102.20
2019-05-28T13:13:49.160Z,97096.87
2019-05-28T13:16:20.304Z,97096.87
2019-05-28T13:18:51.678Z,97102.25
2019-05-28T13:21:22.617Z,97091.30
2019-05-28T13:23:53.201Z,97101.73
2019-05-28T13:26:23.607Z,97093.16
2019-05-28T13:28:54.000Z,97088.01
2019-05-28T13:31:27.270Z,97083.58
2019-05-28T13:33:57.652Z,97083.58
2019-05-28T13:36:28.014Z,97083.95
2019-05-28T13:38:58.760Z,97092.05
2019-05-28T13:41:29.513Z,97099.45
2019-05-28T13:44:00.415Z,97092.72
2019-05-28T13:46:31.036Z,97085.60
2019-05-28T13:49:01.440Z,97086.58
2019-05-28T13:51:32.073Z,97085.89
2019-05-28T13:54:02.412Z,97082.55
2019-05-28T13:56:32.903Z,97075.52
2019-05-28T13:59:03.486Z,97079.91
2019-05-28T14:01:33.965Z,97074.36
2019-05-28T14:04:04.539Z,97069.64
2019-05-28T14:06:34.935Z,97062.91
2019-05-28T14:09:08.450Z,97073.19
2019-05-28T14:11:38.869Z,97073.19
2019-05-28T14:14:09.291Z,97063.73
2019-05-28T14:16:39.667Z,97061.34
2019-05-28T14:19:10.001Z,97058.25
2019-05-28T14:21:40.360Z,97052.30
2019-05-28T14:24:10.894Z,97066.53
2019-05-28T14:26:41.348Z,97055.39
2019-05-28T14:29:11.731Z,97053.70
2019-05-28T14:31:42.189Z,97052.72
2019-05-28T14:34:12.648Z,97046.38
2019-05-28T14:36:43.069Z,97041.70
2019-05-28T14:39:13.434Z,97063.67
2019-05-28T14:41:43.782Z,97063.86
2019-05-28T14:44:14.180Z,97068.42
2019-05-28T14:46:44.559Z,97071.17
2019-05-28T14:49:14.884Z,97062.77
2019-05-28T14:51:45.274Z,97074.38
2019-05-28T14:54:15.608Z,97065.44
2019-05-28T14:56:45.969Z,97065.44
2019-05-28T14:59:16.523Z,97071.52
2019-05-28T15:01:46.861Z,97065.44
2019-05-28T15:04:17.332Z,97059.06
2019-05-28T15:06:47.873Z,97055.69
2019-05-28T15:09:21.318Z,97049.25
2019-05-28T15:11:50.413Z,97044.86
2019-05-28T15:14:20.774Z,97054.63
2019-05-28T15:16:51.211Z,97046.88
2019-05-28T15:19:21.550Z,97045.25
2019-05-28T15:21:51.919Z,97065.75
2019-05-28T15:24:22.300Z,97065.75
2019-05-28T15:26:52.659Z,97099.42
2019-05-28T15:29:23.142Z,97110.13
2019-05-28T15:31:53.586Z,97141.61
2019-05-28T15:34:23.914Z,97134.84
2019-05-28T15:36:54.267Z,97134.31
2019-05-28T15:39:39.011Z,97128.68
2019-05-28T15:41:56.709Z,97133.83
2019-05-28T15:44:27.144Z,97134.55
2019-05-28T15:46:57.446Z,97136.22
2019-05-28T15:49:27.829Z,97131.98
2019-05-28T15:52:07.405Z,97137.99
2019-05-28T15:54:30.281Z,97137.45
2019-05-28T15:57:00.673Z,97136.58
2019-05-28T15:59:31.211Z,97133.80
2019-05-28T16:02:01.606Z,97131.23
2019-05-28T16:04:31.955Z,97131.52
2019-05-28T16:07:02.489Z,97122.61
2019-05-28T16:09:32.850Z,97119.95
2019-05-28T16:12:03.272Z,97110.66
2019-05-28T16:14:33.802Z,97109.02
2019-05-28T16:17:06.690Z,97106.64
2019-05-28T16:19:37.030Z,97109.78
2019-05-28T16:22:07.475Z,97111.56
2019-05-28T16:24:37.833Z,97111.59
2019-05-28T16:27:08.528Z,97115.02
2019-05-28T16:29:39.265Z,97117.83
2019-05-28T16:32:09.727Z,97122.50
2019-05-28T16:34:40.220Z,97114.69
2019-05-28T16:37:10.569Z,97106.32
2019-05-28T16:39:40.938Z,97111.30
2019-05-28T16:42:11.365Z,97113.56
2019-05-28T16:44:41.762Z,97099.22
2019-05-28T16:47:18.546Z,97095.16
2019-05-28T16:49:44.244Z,97098.25
2019-05-28T16:52:14.595Z,97103.48
2019-05-28T16:54:45.823Z,97099.63
2019-05-28T16:57:16.260Z,97102.66
2019-05-28T16:59:46.676Z,97109.53
2019-05-28T17:02:17.105Z,97116.75
2019-05-28T17:04:47.443Z,97118.77
2019-05-28T17:07:18.509Z,97126.09
2019-05-28T17:09:49.244Z,97132.08
2019-05-28T17:12:19.786Z,97127.95
2019-05-28T17:14:50.332Z,97122.45
2019-05-28T17:17:20.706Z,97127.75
2019-05-28T17:19:51.183Z,97130.72
2019-05-28T17:22:21.546Z,97132.47
2019-05-28T17:24:51.925Z,97141.98
2019-05-28T17:27:22.285Z,97145.61
2019-05-28T17:29:52.690Z,97143.77
2019-05-28T17:32:23.032Z,97146.91
2019-05-28T17:34:53.499Z,97142.41
2019-05-28T17:37:23.882Z,97139.73
2019-05-28T17:39:54.262Z,97139.37
2019-05-28T17:42:24.692Z,97134.34
2019-05-28T17:44:55.050Z,97142.09
2019-05-28T17:47:25.397Z,97137.31
2019-05-28T17:49:55.732Z,97134.51
2019-05-28T17:52:26.101Z,97131.38
2019-05-28T17:54:56.483Z,97132.59
2019-05-28T17:57:26.852Z,97137.64
2019-05-28T17:59:57.205Z,97130.34
2019-05-28T18:02:27.639Z,97133.39
2019-05-28T18:04:58.450Z,97129.59
2019-05-28T18:07:29.099Z,97137.70
2019-05-28T18:10:00.033Z,97132.49
2019-05-28T18:12:30.472Z,97145.67
2019-05-28T18:15:00.839Z,97150.52
2019-05-28T18:17:31.257Z,97153.97
2019-05-28T18:20:01.767Z,97153.19
2019-05-28T18:22:32.180Z,97152.98
2019-05-28T18:25:02.604Z,97153.42
2019-05-28T18:27:33.010Z,97172.54
2019-05-28T18:30:03.689Z,97168.77
2019-05-28T18:32:34.060Z,97163.77
2019-05-28T18:35:04.559Z,97178.06
2019-05-28T18:37:34.941Z,97176.10
2019-05-28T18:40:07.600Z,97175.20
2019-05-28T18:42:38.029Z,97181.19
2019-05-28T18:45:09.733Z,97186.38
2019-05-28T18:47:40.755Z,97201.53
2019-05-28T18:50:11.330Z,97203.59
2019-05-28T18:52:41.703Z,97201.66
2019-05-28T18:55:12.108Z,97218.20
2019-05-28T18:57:42.474Z,97234.08
2019-05-28T19:00:14.386Z,97240.36
2019-05-28T19:02:44.837Z,97240.83
2019-05-28T19:05:16.285Z,97242.39
2019-05-28T19:07:46.647Z,97239.61
2019-05-28T19:10:17.049Z,97253.06
2019-05-28T19:12:47.383Z,97246.66
2019-05-28T19:15:17.881Z,97254.25
2019-05-28T19:17:48.212Z,97258.73
2019-05-28T19:20:19.480Z,97261.32
2019-05-28T19:22:49.850Z,97261.01
2019-05-28T19:25:20.488Z,97258.08
2019-05-28T19:27:50.886Z,97269.64
2019-05-28T19:30:33.170Z,97271.48
2019-05-28T19:33:04.765Z,97271.49
2019-05-28T19:35:35.442Z,97271.63
2019-05-28T19:38:05.843Z,97276.13
2019-05-28T19:40:37.607Z,97272.03
2019-05-28T19:43:07.947Z,97273.97
2019-05-28T19:45:38.584Z,97270.94
2019-05-28T19:48:09.513Z,97280.78
2019-05-28T19:50:39.989Z,97274.11
2019-05-28T19:53:10.369Z,97270.84
2019-05-28T19:55:40.750Z,97268.53
2019-05-28T19:58:11.136Z,97262.59
2019-05-28T20:00:41.505Z,97267.36
2019-05-28T20:03:11.858Z,97263.84
2019-05-28T20:05:42.203Z,97268.08
2019-05-28T20:08:12.665Z,97265.78
2019-05-28T20:10:43.104Z,97268.67
2019-05-28T20:13:13.508Z,97265.04
2019-05-28T20:15:43.887Z,97264.56
2019-05-28T20:18:26.342Z,97265.53
2019-05-28T20:20:47.501Z,97267.23
2019-05-28T20:23:18.563Z,97268.92
2019-05-28T20:25:51.520Z,97262.48
2019-05-28T20:28:21.249Z,97261.99
2019-05-28T20:30:51.767Z,97266.50
2019-05-28T20:33:22.122Z,97264.17
2019-05-28T20:35:52.489Z,97270.24
2019-05-28T20:38:22.841Z,97273.18
2019-05-28T20:40:53.220Z,97264.58
2019-05-28T20:43:23.560Z,97268.59
2019-05-28T20:45:53.969Z,97263.82
2019-05-28T20:48:24.327Z,97260.19
2019-05-28T20:51:07.031Z,97274.87
2019-05-28T20:53:35.479Z,97263.83
2019-05-28T20:55:59.118Z,97270.23
2019-05-28T20:58:39.850Z,97274.70
2019-05-28T21:01:02.094Z,97280.78
2019-05-28T21:03:32.457Z,97275.07
2019-05-28T21:06:02.829Z,97281.14
2019-05-28T21:08:33.197Z,97286.35
2019-05-28T21:11:03.607Z,97286.95
2019-05-28T21:13:34.139Z,97290.48
2019-05-28T21:16:04.647Z,97294.73
2019-05-28T21:18:34.982Z,97294.23
2019-05-28T21:21:05.440Z,97290.86
2019-05-28T21:23:35.771Z,97295.45
2019-05-28T21:26:06.487Z,97295.45
2019-05-28T21:28:36.871Z,97298.50
2019-05-28T21:31:07.230Z,97299.47
2019-05-28T21:33:37.589Z,97299.23
2019-05-28T21:36:07.973Z,97300.70
2019-05-28T21:38:38.801Z,97302.16
2019-05-28T21:41:09.539Z,97309.06
2019-05-28T21:43:39.897Z,97306.52
2019-05-28T21:46:10.274Z,97307.97
2019-05-28T21:48:40.694Z,97300.80
2019-05-28T21:51:11.154Z,97312.34
2019-05-28T21:53:43.099Z,97316.23
2019-05-28T21:56:13.453Z,97317.57
2019-05-28T21:58:43.778Z,97316.36
2019-05-28T22:01:16.905Z,97320.00
2019-05-28T22:03:47.282Z,97326.06
2019-05-28T22:06:17.826Z,97325.08
2019-05-28T22:08:48.177Z,97334.68
2019-05-28T22:11:18.740Z,97331.16
2019-05-28T22:13:49.533Z,97332.86
2019-05-28T22:16:19.924Z,97329.33
2019-05-28T22:18:50.362Z,97331.41
2019-05-28T22:21:20.753Z,97339.63
2019-05-28T22:23:51.131Z,97330.66
2019-05-28T22:26:21.625Z,97332.48
2019-05-28T22:28:51.963Z,97333.21
2019-05-28T22:31:22.298Z,97329.70
2019-05-28T22:33:52.664Z,97336.33
2019-05-28T22:36:23.213Z,97337.54
2019-05-28T22:39:06.753Z,97340.82
2019-05-28T22:41:40.049Z,97339.13
2019-05-28T22:44:10.407Z,97344.81
2019-05-28T22:46:40.790Z,97351.75
2019-05-28T22:49:11.164Z,97354.03
2019-05-28T22:51:41.483Z,97356.84
2019-05-28T22:54:11.839Z,97354.30
2019-05-28T22:56:42.272Z,97369.17
2019-05-28T22:59:12.634Z,97363.97
2019-05-28T23:01:43.080Z,97368.45
2019-05-28T23:04:13.447Z,97362.51
2019-05-28T23:06:43.777Z,97364.58
2019-05-28T23:09:14.240Z,97369.91
2019-05-28T23:11:44.585Z,97371.36
2019-05-28T23:14:14.967Z,97372.58
2019-05-28T23:16:45.331Z,97371.98
2019-05-28T23:19:15.676Z,97381.66
2019-05-28T23:21:46.125Z,97374.28
2019-05-28T23:24:16.449Z,97375.38
2019-05-28T23:26:46.767Z,97372.33
2019-05-28T23:29:17.133Z,97388.55
2019-05-28T23:31:47.485Z,97382.02
2019-05-28T23:34:18.501Z,97388.18
2019-05-28T23:36:49.121Z,97393.67
2019-05-28T23:39:19.686Z,97392.56
2019-05-28T23:41:50.121Z,97390.39
2019-05-28T23:44:20.471Z,97397.64
2019-05-28T23:46:50.853Z,97398.38
2019-05-28T23:49:21.262Z,97397.30
2019-05-28T23:51:51.611Z,97402.98
2019-05-28T23:54:21.969Z,97394.52
2019-05-28T23:56:52.329Z,97397.89
2019-05-28T23:59:22.670Z,97399.32
